Time;durP1;ratioP1;P1;durP2;ratioP2;P2;SDS_P1;SDS_P2;PMS_P1;PMS_P2;Temp;Humidity;BMP_temperature;BMP_pressure;BME280_temperature;BME280_humidity;BME280_pressure;Samples;Min_cycle;Max_cycle;Signal;HPM_P1;HPM_P2
2020/12/10 00:02:10;;;;;;;54.80;28.10;;;0.70;82.70;;;;;;5031634;28;20768;-76
2020/12/10 00:04:36;;;;;;;51.97;27.98;;;0.60;83.00;;;;;;5031265;28;20398;-74
2020/12/10 00:07:02;;;;;;;57.50;28.80;;;0.60;83.60;;;;;;5035351;28;20405;-75
2020/12/10 00:09:27;;;;;;;58.30;28.23;;;0.70;82.60;;;;;;5047258;28;20451;-75
2020/12/10 00:11:56;;;;;;;50.92;27.10;;;0.70;82.30;;;;;;5032914;28;20411;-74
2020/12/10 00:14:21;;;;;;;52.15;27.77;;;0.70;82.30;;;;;;5031153;28;20921;-73
2020/12/10 00:16:50;;;;;;;52.13;27.97;;;0.70;82.20;;;;;;5031308;28;20391;-75
2020/12/10 00:19:16;;;;;;;51.40;27.63;;;0.60;82.20;;;;;;5048129;28;20409;-75
2020/12/10 00:21:41;;;;;;;53.17;27.00;;;0.70;82.60;;;;;;5051293;28;20392;-74
2020/12/10 00:24:07;;;;;;;51.42;27.50;;;0.70;82.70;;;;;;5042173;28;20403;-75
2020/12/10 00:26:32;;;;;;;53.10;27.83;;;0.70;82.00;;;;;;5031044;28;20398;-75
2020/12/10 00:28:58;;;;;;;49.40;26.20;;;0.70;81.70;;;;;;5030935;28;20422;-73
2020/12/10 00:31:24;;;;;;;49.10;25.73;;;0.70;81.40;;;;;;5031160;28;20448;-74
2020/12/10 00:33:50;;;;;;;54.75;28.23;;;0.70;80.80;;;;;;5030758;28;20546;-74
2020/12/10 00:36:15;;;;;;;50.97;25.87;;;0.70;81.40;;;;;;5030263;28;20431;-73
2020/12/10 00:38:41;;;;;;;50.13;27.27;;;0.70;81.50;;;;;;5031099;28;20395;-73
2020/12/10 00:41:07;;;;;;;51.20;26.50;;;0.70;81.60;;;;;;5030947;28;20417;-73
2020/12/10 00:43:33;;;;;;;48.17;24.70;;;0.70;81.10;;;;;;5035072;28;20389;-74
2020/12/10 00:46:05;;;;;;;50.53;26.90;;;0.70;80.70;;;;;;5049281;28;20390;-72
2020/12/10 00:48:34;;;;;;;50.55;25.95;;;0.70;80.30;;;;;;5050685;28;20428;-72
2020/12/10 00:51:01;;;;;;;53.70;26.55;;;0.70;79.80;;;;;;5050880;28;20385;-75
2020/12/10 00:53:28;;;;;;;48.95;25.70;;;0.60;80.70;;;;;;5037331;28;20398;-75
2020/12/10 00:55:57;;;;;;;50.95;26.15;;;0.70;81.40;;;;;;5030525;28;20540;-75
2020/12/10 00:58:23;;;;;;;46.97;25.52;;;0.80;80.50;;;;;;5030813;28;20490;-76
2020/12/10 01:00:50;;;;;;;49.93;25.30;;;0.60;80.60;;;;;;5031077;28;20380;-74
2020/12/10 01:03:16;;;;;;;46.10;25.65;;;0.70;81.30;;;;;;5030414;28;20792;-74
2020/12/10 01:05:42;;;;;;;49.30;25.80;;;0.60;81.20;;;;;;5030390;28;20390;-74
2020/12/10 01:08:07;;;;;;;48.30;24.35;;;0.70;81.10;;;;;;5040464;28;20755;-74
2020/12/10 01:10:33;;;;;;;49.60;25.00;;;0.70;79.90;;;;;;5050282;28;20384;-74
2020/12/10 01:12:59;;;;;;;48.17;24.98;;;0.70;79.90;;;;;;5050085;28;20896;-75
2020/12/10 01:15:25;;;;;;;48.83;24.25;;;0.70;79.50;;;;;;5050284;28;20378;-75
2020/12/10 01:17:51;;;;;;;49.60;25.23;;;0.80;80.00;;;;;;5050360;28;20723;-75
2020/12/10 01:20:16;;;;;;;51.60;25.40;;;0.80;78.80;;;;;;5050037;28;20393;-75
2020/12/10 01:22:42;;;;;;;49.73;25.03;;;0.70;79.30;;;;;;5033018;28;20748;-75
2020/12/10 01:25:07;;;;;;;49.22;24.52;;;0.60;80.40;;;;;;5029953;28;20391;-74
2020/12/10 01:27:33;;;;;;;48.00;25.65;;;0.60;80.10;;;;;;5030120;28;20465;-75
2020/12/10 01:29:58;;;;;;;48.85;25.50;;;0.60;80.90;;;;;;5030255;28;20470;-73
2020/12/10 01:32:25;;;;;;;49.60;25.80;;;0.60;81.90;;;;;;5030082;28;20375;-73
2020/12/10 01:34:51;;;;;;;51.78;25.63;;;0.60;81.00;;;;;;5029622;28;20384;-75
2020/12/10 01:37:18;;;;;;;48.90;25.50;;;0.60;82.00;;;;;;5029624;28;20761;-74
2020/12/10 01:39:44;;;;;;;50.03;25.50;;;0.60;81.10;;;;;;5029866;28;20402;-76
2020/12/10 01:42:09;;;;;;;50.80;25.90;;;0.60;81.40;;;;;;5030070;28;20387;-75
2020/12/10 01:44:35;;;;;;;50.63;25.17;;;0.50;81.90;;;;;;5029747;28;20413;-76
2020/12/10 01:47:00;;;;;;;46.60;25.00;;;0.50;82.00;;;;;;5029142;28;20414;-76
2020/12/10 01:49:26;;;;;;;47.85;24.77;;;0.50;83.00;;;;;;5029247;28;20383;-73
2020/12/10 01:51:52;;;;;;;49.60;24.65;;;0.50;82.60;;;;;;5031865;28;20399;-74
2020/12/10 01:54:18;;;;;;;48.40;24.42;;;0.60;81.70;;;;;;5029343;28;20385;-73
2020/12/10 01:56:44;;;;;;;50.20;25.47;;;0.50;81.70;;;;;;5029847;28;20916;-76
2020/12/10 01:59:13;;;;;;;47.27;24.67;;;0.50;81.60;;;;;;5029694;28;20727;-75
2020/12/10 02:01:38;;;;;;;48.70;24.75;;;0.60;81.30;;;;;;5029774;28;20402;-75
2020/12/10 02:04:24;;;;;;;47.40;25.30;;;0.50;81.10;;;;;;5029548;28;20384;-74
2020/12/10 02:06:49;;;;;;;46.92;24.98;;;0.50;81.50;;;;;;5035259;28;20416;-75
2020/12/10 02:09:15;;;;;;;51.15;26.13;;;0.40;82.30;;;;;;5050056;28;20941;-74
2020/12/10 02:11:40;;;;;;;49.67;25.37;;;0.40;82.70;;;;;;5049666;28;20390;-73
2020/12/10 02:14:06;;;;;;;48.03;26.20;;;0.30;83.70;;;;;;5035228;28;20395;-75
2020/12/10 02:16:32;;;;;;;52.95;26.25;;;0.40;83.30;;;;;;5029776;28;20413;-75
2020/12/10 02:18:57;;;;;;;50.83;25.70;;;0.30;82.80;;;;;;5029131;28;20406;-73
2020/12/10 02:21:23;;;;;;;50.07;25.20;;;0.30;83.90;;;;;;5029768;28;20383;-74
2020/12/10 02:23:55;;;;;;;55.70;26.80;;;0.40;83.90;;;;;;5029554;28;20383;-75
2020/12/10 02:26:22;;;;;;;56.05;26.70;;;0.40;84.00;;;;;;5029429;28;20930;-75
2020/12/10 02:28:48;;;;;;;50.40;26.50;;;0.30;84.30;;;;;;5029247;28;20399;-75
2020/12/10 02:31:23;;;;;;;53.13;26.50;;;0.40;85.40;;;;;;5029464;28;20386;-73
2020/12/10 02:33:49;;;;;;;55.60;27.92;;;0.40;83.50;;;;;;5029223;28;20421;-73
2020/12/10 02:36:14;;;;;;;51.45;26.63;;;0.30;83.40;;;;;;5029181;28;20921;-73
2020/12/10 02:38:40;;;;;;;50.23;26.30;;;0.30;84.40;;;;;;5029167;28;20374;-74
2020/12/10 02:41:05;;;;;;;52.60;27.38;;;0.30;83.50;;;;;;5027860;28;20391;-74
2020/12/10 02:43:31;;;;;;;55.10;27.07;;;0.20;84.10;;;;;;5028990;28;20379;-74
2020/12/10 02:45:56;;;;;;;54.03;26.07;;;0.20;84.60;;;;;;5029061;28;20379;-73
2020/12/10 02:48:22;;;;;;;55.20;27.10;;;0.20;85.10;;;;;;5027661;28;20407;-75
2020/12/10 02:50:47;;;;;;;58.47;27.88;;;0.10;85.20;;;;;;5029049;28;20387;-74
2020/12/10 02:53:13;;;;;;;59.53;27.50;;;0.10;86.00;;;;;;5028916;28;20873;-76
2020/12/10 02:55:39;;;;;;;55.60;26.83;;;0.20;85.90;;;;;;5029204;28;20401;-74
2020/12/10 02:58:04;;;;;;;53.23;26.93;;;0.20;84.90;;;;;;5029026;28;20809;-74
2020/12/10 03:00:30;;;;;;;53.50;25.90;;;0.30;84.60;;;;;;5032116;28;20391;-76
2020/12/10 03:02:56;;;;;;;58.80;28.23;;;0.30;83.70;;;;;;5034735;28;20589;-74
2020/12/10 03:05:21;;;;;;;55.97;28.70;;;0.20;83.30;;;;;;5031435;28;20745;-74
2020/12/10 03:07:47;;;;;;;57.50;27.20;;;0.10;84.40;;;;;;5045907;28;20470;-75
2020/12/10 03:10:12;;;;;;;60.00;28.02;;;0.10;85.00;;;;;;5054219;28;20867;-73
2020/12/10 03:12:38;;;;;;;61.53;29.92;;;0.20;85.60;;;;;;5043721;28;20461;-76
2020/12/10 03:15:04;;;;;;;62.03;28.17;;;0.20;86.00;;;;;;5038181;28;20401;-74
2020/12/10 03:17:33;;;;;;;59.17;29.05;;;0.10;86.00;;;;;;5033953;28;20896;-74
2020/12/10 03:19:58;;;;;;;60.13;28.52;;;0.10;86.20;;;;;;5034340;28;20480;-74
2020/12/10 03:22:24;;;;;;;59.50;28.47;;;0.10;86.70;;;;;;5034955;28;20861;-74
2020/12/10 03:24:49;;;;;;;57.20;27.67;;;0.10;86.30;;;;;;5035367;28;20387;-73
2020/12/10 03:27:15;;;;;;;62.05;29.35;;;0.10;86.80;;;;;;5034730;28;20415;-75
2020/12/10 03:29:40;;;;;;;63.83;29.05;;;0.10;85.80;;;;;;5031678;28;20391;-73
2020/12/10 03:32:06;;;;;;;56.73;28.00;;;0.00;85.70;;;;;;5032093;28;20433;-74
2020/12/10 03:34:32;;;;;;;61.37;29.20;;;0.00;86.00;;;;;;5032017;28;20391;-74
2020/12/10 03:36:59;;;;;;;62.47;29.13;;;0.00;86.50;;;;;;5032061;28;20449;-74
2020/12/10 03:39:26;;;;;;;62.65;29.33;;;-0.10;86.90;;;;;;5031746;28;20395;-73
2020/12/10 03:41:53;;;;;;;65.53;30.42;;;-0.10;87.20;;;;;;5031703;28;20422;-74
2020/12/10 03:44:20;;;;;;;63.83;30.10;;;-0.10;87.70;;;;;;5031665;28;20397;-74
2020/12/10 03:46:46;;;;;;;60.15;29.45;;;-0.10;87.50;;;;;;5032107;28;20411;-73
2020/12/10 03:49:12;;;;;;;66.10;30.98;;;0.00;87.30;;;;;;5031712;28;20379;-75
2020/12/10 03:51:39;;;;;;;62.60;30.02;;;0.00;87.00;;;;;;5031949;28;20387;-73
2020/12/10 03:54:05;;;;;;;60.35;29.83;;;-0.10;86.90;;;;;;5031377;28;20383;-72
2020/12/10 03:56:31;;;;;;;67.85;31.98;;;0.00;87.00;;;;;;5033759;28;20402;-74
2020/12/10 03:58:58;;;;;;;65.05;29.55;;;-0.10;86.70;;;;;;5031344;28;20403;-74
2020/12/10 04:01:23;;;;;;;68.53;31.57;;;-0.10;87.70;;;;;;5031372;28;20410;-74
2020/12/10 04:03:49;;;;;;;62.85;30.95;;;-0.10;87.70;;;;;;5031142;28;20379;-75
2020/12/10 04:06:14;;;;;;;61.80;30.30;;;-0.10;88.00;;;;;;5031413;28;20945;-74
2020/12/10 04:08:40;;;;;;;64.30;29.93;;;-0.10;87.70;;;;;;5046860;28;20874;-74
2020/12/10 04:11:05;;;;;;;65.73;31.50;;;-0.10;88.30;;;;;;5042086;28;20425;-74
2020/12/10 04:13:31;;;;;;;62.83;30.40;;;-0.10;87.90;;;;;;5051176;28;20388;-77
2020/12/10 04:16:00;;;;;;;60.13;30.25;;;-0.10;88.10;;;;;;5051207;28;20878;-75
2020/12/10 04:18:26;;;;;;;64.82;31.40;;;-0.10;88.30;;;;;;5050792;28;20835;-74
2020/12/10 04:20:52;;;;;;;65.17;31.37;;;-0.10;87.80;;;;;;5050888;28;20400;-72
2020/12/10 04:23:17;;;;;;;64.32;30.77;;;-0.10;87.20;;;;;;5043716;28;20391;-72
2020/12/10 04:25:43;;;;;;;64.22;30.52;;;0.00;86.90;;;;;;5031573;28;20419;-73
2020/12/10 04:28:08;;;;;;;63.60;31.15;;;-0.10;86.80;;;;;;5031176;28;20450;-73
2020/12/10 04:30:34;;;;;;;71.00;31.33;;;-0.10;87.00;;;;;;5031477;28;20395;-74
2020/12/10 04:33:00;;;;;;;66.93;32.25;;;-0.10;88.30;;;;;;5029803;28;20388;-74
2020/12/10 04:35:26;;;;;;;67.33;30.80;;;-0.10;87.20;;;;;;5031497;28;20393;-74
2020/12/10 04:37:51;;;;;;;63.53;30.70;;;-0.10;87.10;;;;;;5031049;28;20410;-73
2020/12/10 04:40:17;;;;;;;70.80;33.88;;;-0.10;86.80;;;;;;5031312;28;20392;-74
2020/12/10 04:42:44;;;;;;;68.38;32.20;;;-0.10;86.70;;;;;;5033833;28;20391;-73
2020/12/10 04:45:09;;;;;;;67.28;31.77;;;-0.20;87.30;;;;;;5032649;28;20486;-74
2020/12/10 04:47:37;;;;;;;67.57;31.90;;;-0.20;87.90;;;;;;5031483;28;20490;-74
2020/12/10 04:50:04;;;;;;;67.40;31.70;;;-0.10;88.00;;;;;;5038451;28;20397;-74
2020/12/10 04:52:32;;;;;;;67.57;31.42;;;-0.10;87.70;;;;;;5036413;28;20395;-74
2020/12/10 04:54:58;;;;;;;66.05;31.90;;;-0.10;88.20;;;;;;5046821;28;21001;-74
2020/12/10 04:57:29;;;;;;;72.72;34.13;;;-0.10;87.90;;;;;;5052784;28;20520;-74
2020/12/10 04:59:54;;;;;;;65.22;32.08;;;-0.10;87.30;;;;;;5052640;28;20389;-74
2020/12/10 05:02:20;;;;;;;69.10;32.25;;;-0.20;87.50;;;;;;5051684;28;20396;-74
2020/12/10 05:04:45;;;;;;;69.00;30.53;;;-0.20;87.70;;;;;;5049811;28;20412;-73
2020/12/10 05:07:11;;;;;;;71.00;33.07;;;-0.20;88.10;;;;;;5034260;28;20414;-73
2020/12/10 05:09:36;;;;;;;71.47;33.23;;;-0.20;88.50;;;;;;5047992;28;20389;-75
2020/12/10 05:12:02;;;;;;;67.50;32.05;;;-0.20;88.40;;;;;;5050006;28;20373;-74
2020/12/10 05:14:44;;;;;;;68.57;31.40;;;-0.20;88.90;;;;;;5050103;28;20389;-74
2020/12/10 05:17:11;;;;;;;69.10;32.50;;;-0.10;88.80;;;;;;5049780;28;20389;-73
2020/12/10 05:19:37;;;;;;;69.57;31.88;;;-0.20;88.60;;;;;;5043208;28;20403;-75
2020/12/10 05:22:05;;;;;;;65.30;31.20;;;-0.10;88.00;;;;;;5028397;28;20395;-73
2020/12/10 05:24:31;;;;;;;68.05;32.30;;;-0.10;87.30;;;;;;5042749;28;20404;-73
2020/12/10 05:27:19;;;;;;;69.63;32.30;;;-0.10;87.10;;;;;;5049251;28;20409;-74
2020/12/10 05:29:46;;;;;;;65.03;31.50;;;-0.10;87.30;;;;;;5049949;28;20378;-74
2020/12/10 05:32:30;;;;;;;69.00;31.80;;;-0.10;87.40;;;;;;5049225;28;20377;-74
2020/12/10 05:34:56;;;;;;;65.40;31.00;;;-0.10;87.70;;;;;;5033207;28;20457;-74
2020/12/10 05:37:27;;;;;;;66.05;31.42;;;-0.10;88.20;;;;;;5028378;28;20757;-74
2020/12/10 05:39:59;;;;;;;69.75;32.47;;;-0.20;88.00;;;;;;5029936;28;20467;-72
2020/12/10 05:42:33;;;;;;;67.47;32.28;;;-0.20;88.10;;;;;;5029542;28;20403;-73
2020/12/10 05:44:59;;;;;;;66.05;30.42;;;-0.10;88.90;;;;;;5029263;28;20379;-73
2020/12/10 05:47:28;;;;;;;67.40;32.15;;;-0.20;88.60;;;;;;5029003;28;20422;-75
2020/12/10 05:49:55;;;;;;;69.47;31.70;;;-0.20;88.20;;;;;;5030405;28;20399;-74
2020/12/10 05:52:24;;;;;;;73.43;33.10;;;-0.20;88.70;;;;;;5049278;28;20377;-74
2020/12/10 05:54:56;;;;;;;66.28;32.10;;;-0.20;88.20;;;;;;5049018;28;20392;-74
2020/12/10 05:57:22;;;;;;;71.32;34.30;;;-0.30;88.20;;;;;;5045194;28;20386;-74
2020/12/10 05:59:49;;;;;;;67.10;32.38;;;-0.30;88.40;;;;;;5029611;28;20886;-75
2020/12/10 06:02:17;;;;;;;68.10;31.55;;;-0.30;89.00;;;;;;5028948;28;20395;-73
2020/12/10 06:04:44;;;;;;;69.85;32.63;;;-0.30;89.50;;;;;;5029085;28;20394;-72
2020/12/10 06:07:10;;;;;;;70.63;34.30;;;-0.30;89.30;;;;;;5036587;28;20416;-74
2020/12/10 06:09:37;;;;;;;71.65;34.50;;;-0.20;88.60;;;;;;5052167;28;20464;-75
2020/12/10 06:12:05;;;;;;;67.00;31.42;;;-0.20;88.40;;;;;;5051166;28;20407;-74
2020/12/10 06:14:31;;;;;;;67.03;31.58;;;-0.20;87.60;;;;;;5046964;28;20401;-75
2020/12/10 06:17:07;;;;;;;72.63;33.00;;;-0.20;87.70;;;;;;5030747;28;20916;-73
2020/12/10 06:19:33;;;;;;;74.43;35.55;;;-0.20;87.80;;;;;;5028556;28;20490;-72
2020/12/10 06:22:29;;;;;;;67.53;33.50;;;-0.20;87.70;;;;;;5029859;28;20772;-74
2020/12/10 06:24:59;;;;;;;73.32;33.63;;;-0.20;88.00;;;;;;5029056;28;20816;-74
2020/12/10 06:27:29;;;;;;;75.78;34.67;;;-0.20;88.20;;;;;;5029293;28;20832;-75
2020/12/10 06:30:18;;;;;;;73.35;33.65;;;-0.20;88.00;;;;;;5028098;28;20427;-75
2020/12/10 06:32:49;;;;;;;68.57;31.53;;;-0.20;88.90;;;;;;5024104;28;20776;-75
2020/12/10 06:35:33;;;;;;;66.93;32.90;;;-0.20;88.50;;;;;;5032044;28;20748;-75
2020/12/10 06:38:01;;;;;;;66.20;32.90;;;-0.20;87.50;;;;;;5032576;28;20938;-72
2020/12/10 06:40:29;;;;;;;75.47;33.78;;;-0.20;87.60;;;;;;5032653;28;20482;-74
2020/12/10 06:42:55;;;;;;;71.35;33.78;;;-0.20;87.30;;;;;;5032117;28;20760;-75
2020/12/10 06:45:34;;;;;;;66.30;31.88;;;-0.20;87.40;;;;;;5032441;28;20378;-76
2020/12/10 06:48:01;;;;;;;66.97;31.10;;;-0.10;86.80;;;;;;5032097;28;20510;-75
2020/12/10 06:50:30;;;;;;;65.93;31.83;;;-0.10;86.60;;;;;;5033224;28;20398;-75
2020/12/10 06:53:15;;;;;;;63.78;30.98;;;-0.10;86.80;;;;;;5032272;28;20394;-74
2020/12/10 06:58:34;;;;;;;67.07;31.50;;;-0.10;85.80;;;;;;5041960;28;20393;-76
2020/12/10 07:01:16;;;;;;;73.07;33.13;;;-0.10;86.00;;;;;;5051351;28;20427;-75
2020/12/10 07:03:43;;;;;;;70.03;32.85;;;-0.20;86.40;;;;;;5052010;28;20396;-76
2020/12/10 07:06:19;;;;;;;65.43;32.13;;;-0.20;86.50;;;;;;5051742;28;20732;-73
2020/12/10 07:09:05;;;;;;;65.33;31.87;;;-0.10;87.00;;;;;;5043905;28;20801;-74
2020/12/10 07:11:39;;;;;;;70.57;32.33;;;0.20;85.70;;;;;;5045851;28;20391;-73
2020/12/10 07:14:28;;;;;;;68.25;33.30;;;0.10;83.80;;;;;;5030108;28;20473;-75
2020/12/10 07:16:55;;;;;;;69.95;31.83;;;-0.10;84.70;;;;;;5032062;28;20461;-73
2020/12/10 07:19:22;;;;;;;68.22;31.95;;;-0.10;85.30;;;;;;5032002;28;20402;-75
2020/12/10 07:21:48;;;;;;;67.07;32.17;;;-0.20;85.70;;;;;;5031889;28;20410;-72
2020/12/10 07:24:13;;;;;;;65.82;32.80;;;-0.20;86.30;;;;;;5031429;28;20398;-74
2020/12/10 07:26:41;;;;;;;69.60;33.00;;;-0.20;87.10;;;;;;5033330;28;20395;-74
2020/12/10 07:29:07;;;;;;;67.72;33.10;;;-0.20;87.60;;;;;;5030877;28;20415;-75
2020/12/10 07:31:32;;;;;;;68.22;32.65;;;-0.20;87.00;;;;;;5032618;28;20485;-74
2020/12/10 07:33:58;;;;;;;64.60;31.95;;;-0.20;87.50;;;;;;5032070;28;20570;-73
2020/12/10 07:36:25;;;;;;;67.37;32.57;;;-0.20;87.60;;;;;;5032911;28;20387;-74
2020/12/10 07:38:51;;;;;;;63.45;30.73;;;-0.10;87.70;;;;;;5031833;28;20402;-75
2020/12/10 07:41:16;;;;;;;63.05;31.20;;;0.00;87.10;;;;;;5032911;28;20394;-74
2020/12/10 07:43:45;;;;;;;65.13;32.05;;;0.00;86.20;;;;;;5030831;28;20423;-74
2020/12/10 07:46:11;;;;;;;62.75;32.38;;;0.00;85.80;;;;;;5030858;28;20428;-75
2020/12/10 07:48:37;;;;;;;67.20;31.97;;;0.00;86.00;;;;;;5030662;28;20439;-74
2020/12/10 07:51:03;;;;;;;64.07;32.20;;;0.00;86.90;;;;;;5041616;28;20832;-75
2020/12/10 07:53:28;;;;;;;70.68;33.30;;;0.00;86.70;;;;;;5044895;28;20421;-72
2020/12/10 07:55:59;;;;;;;65.55;32.72;;;0.00;86.40;;;;;;5030921;28;20383;-73
2020/12/10 07:58:48;;;;;;;69.20;31.75;;;0.10;86.60;;;;;;5032607;28;20760;-72
2020/12/10 08:01:14;;;;;;;61.70;31.20;;;0.00;86.50;;;;;;5031409;28;20375;-73
2020/12/10 08:03:48;;;;;;;61.60;31.75;;;0.10;86.10;;;;;;5030237;28;20409;-73
2020/12/10 08:06:15;;;;;;;68.17;33.23;;;0.00;86.30;;;;;;5031076;28;20431;-73
2020/12/10 08:08:58;;;;;;;66.88;31.70;;;0.00;86.40;;;;;;5044213;28;20409;-73
2020/12/10 08:11:27;;;;;;;67.55;32.20;;;0.10;87.40;;;;;;5049419;28;20439;-73
2020/12/10 08:14:08;;;;;;;61.13;31.08;;;0.20;86.50;;;;;;5030607;28;20756;-74
2020/12/10 08:16:45;;;;;;;61.80;30.30;;;0.30;85.70;;;;;;5030834;28;20383;-73
2020/12/10 08:19:31;;;;;;;58.97;29.75;;;0.30;85.00;;;;;;5030379;28;20399;-74
2020/12/10 08:21:57;;;;;;;63.20;30.80;;;0.40;84.10;;;;;;5034031;28;20393;-74
2020/12/10 08:24:41;;;;;;;60.47;30.83;;;0.40;84.10;;;;;;5050295;28;20549;-73
2020/12/10 08:27:10;;;;;;;60.53;32.28;;;0.40;84.40;;;;;;5045985;28;20892;-73
2020/12/10 08:29:36;;;;;;;63.97;31.23;;;0.40;84.40;;;;;;5030499;28;20391;-73
2020/12/10 08:32:06;;;;;;;58.05;30.20;;;0.50;84.00;;;;;;5029803;28;20396;-73
2020/12/10 08:34:31;;;;;;;57.53;30.00;;;0.70;82.70;;;;;;5029833;28;20418;-73
2020/12/10 08:37:05;;;;;;;61.33;31.20;;;0.90;79.50;;;;;;5028977;28;20698;-72
2020/12/10 08:39:35;;;;;;;53.90;29.30;;;0.90;78.00;;;;;;5028889;28;20443;-73
2020/12/10 08:42:02;;;;;;;56.67;30.45;;;0.80;77.10;;;;;;5034106;28;20382;-72
2020/12/10 08:44:43;;;;;;;57.27;30.70;;;0.80;78.20;;;;;;5049950;28;20802;-74
2020/12/10 08:47:09;;;;;;;57.88;30.65;;;0.90;77.40;;;;;;5041548;28;20465;-74
2020/12/10 08:49:34;;;;;;;54.65;29.63;;;0.90;77.10;;;;;;5033432;28;20678;-74
2020/12/10 08:52:00;;;;;;;57.23;29.37;;;1.00;77.80;;;;;;5049603;28;20393;-74
2020/12/10 08:54:26;;;;;;;57.60;29.77;;;1.00;77.80;;;;;;5033191;28;20468;-74
2020/12/10 08:57:04;;;;;;;58.58;31.20;;;1.10;78.10;;;;;;5030986;28;20395;-73
2020/12/10 08:59:30;;;;;;;52.67;28.05;;;1.80;80.00;;;;;;5032292;28;20558;-73
2020/12/10 09:01:55;;;;;;;50.90;27.67;;;2.90;71.60;;;;;;5040651;28;20743;-74
2020/12/10 09:04:21;;;;;;;52.20;27.63;;;3.20;61.00;;;;;;5052205;28;20389;-73
2020/12/10 09:06:47;;;;;;;52.50;28.67;;;3.10;57.30;;;;;;5037040;28;20393;-74
2020/12/10 09:09:13;;;;;;;51.35;27.20;;;2.70;57.20;;;;;;5049713;28;20413;-74
2020/12/10 09:11:39;;;;;;;50.03;27.60;;;2.40;59.90;;;;;;5051671;28;20393;-74
2020/12/10 09:14:04;;;;;;;51.00;27.45;;;2.20;62.10;;;;;;5033921;28;20391;-74
2020/12/10 09:16:30;;;;;;;52.67;28.05;;;2.10;64.10;;;;;;5035602;28;20393;-74
2020/12/10 09:18:56;;;;;;;50.30;28.38;;;2.20;66.10;;;;;;5035561;28;20490;-74
2020/12/10 09:21:22;;;;;;;50.22;27.20;;;2.50;65.10;;;;;;5055461;28;20412;-74
2020/12/10 09:23:48;;;;;;;55.58;29.17;;;2.50;61.90;;;;;;5055785;28;20537;-75
2020/12/10 09:26:14;;;;;;;50.93;28.00;;;2.50;60.90;;;;;;5033918;28;20515;-75
2020/12/10 09:28:41;;;;;;;51.92;29.48;;;2.40;61.70;;;;;;5032710;28;20418;-75
2020/12/10 09:31:06;;;;;;;53.88;28.58;;;2.40;60.80;;;;;;5033974;28;20398;-74
2020/12/10 09:33:32;;;;;;;53.50;28.57;;;2.30;62.00;;;;;;5042207;28;20393;-74
2020/12/10 09:35:58;;;;;;;48.63;28.17;;;2.30;62.30;;;;;;5039829;28;20406;-75
2020/12/10 09:38:24;;;;;;;53.45;28.58;;;2.30;62.50;;;;;;5031875;28;20392;-74
2020/12/10 09:40:50;;;;;;;48.60;27.85;;;2.40;62.80;;;;;;5032775;28;20410;-74
2020/12/10 09:43:15;;;;;;;54.60;28.17;;;2.30;62.70;;;;;;5032249;28;20395;-75
2020/12/10 09:45:44;;;;;;;53.20;28.67;;;2.40;62.10;;;;;;5032449;28;20395;-74
2020/12/10 09:48:10;;;;;;;51.90;28.90;;;2.50;61.20;;;;;;5033262;28;20414;-73
2020/12/10 09:50:37;;;;;;;125.40;68.70;;;2.50;62.20;;;;;;5039592;28;20385;-74
2020/12/10 09:53:21;;;;;;;170.73;92.50;;;2.70;61.30;;;;;;5049583;28;20424;-74
2020/12/10 09:56:12;;;;;;;186.38;100.90;;;2.70;62.80;;;;;;5033393;28;20456;-74
2020/12/10 09:58:35;;;;;;;96.90;50.28;;;2.80;60.50;;;;;;5036416;28;20920;-75
2020/12/10 10:01:00;;;;;;;78.17;40.03;;;3.00;59.10;;;;;;5031525;28;20399;-74
2020/12/10 10:03:26;;;;;;;50.37;24.90;;;3.20;60.80;;;;;;5042955;28;20393;-75
2020/12/10 10:05:51;;;;;;;48.77;25.97;;;3.20;56.10;;;;;;5049837;28;20389;-76
2020/12/10 10:08:21;;;;;;;45.50;25.80;;;3.10;57.10;;;;;;5040874;28;20402;-74
2020/12/10 10:10:46;;;;;;;45.97;25.25;;;3.00;58.00;;;;;;5053871;28;20850;-74
2020/12/10 10:13:12;;;;;;;46.92;25.95;;;3.00;56.90;;;;;;5043386;28;20387;-73
2020/12/10 10:15:38;;;;;;;43.30;24.58;;;3.10;57.30;;;;;;5034477;28;20431;-75
2020/12/10 10:18:04;;;;;;;43.67;24.48;;;3.20;56.80;;;;;;5034349;28;20407;-73
2020/12/10 10:20:29;;;;;;;47.17;25.15;;;3.30;54.80;;;;;;5034465;28;20387;-74
2020/12/10 10:22:56;;;;;;;44.97;25.63;;;3.30;55.90;;;;;;5039920;28;20401;-74
2020/12/10 10:25:21;;;;;;;46.95;25.73;;;3.40;56.20;;;;;;5054315;28;20382;-74
2020/12/10 10:27:47;;;;;;;44.30;25.70;;;3.40;56.20;;;;;;5046365;28;21006;-74
2020/12/10 10:30:13;;;;;;;45.00;24.50;;;3.60;53.60;;;;;;5033978;28;20410;-74
2020/12/10 10:32:38;;;;;;;40.78;23.80;;;3.70;54.70;;;;;;5033439;28;20828;-74
2020/12/10 10:35:04;;;;;;;38.25;22.25;;;3.90;53.30;;;;;;5034201;28;20799;-76
2020/12/10 10:37:29;;;;;;;41.20;23.00;;;4.00;51.70;;;;;;5037979;28;20458;-74
2020/12/10 10:39:55;;;;;;;41.87;23.43;;;4.00;50.90;;;;;;5037420;28;20383;-75
2020/12/10 10:42:20;;;;;;;41.27;23.00;;;4.10;51.30;;;;;;5038369;28;20410;-75
2020/12/10 10:44:46;;;;;;;40.27;22.30;;;4.40;50.00;;;;;;5047528;28;20401;-74
2020/12/10 10:47:12;;;;;;;36.53;21.63;;;4.50;48.70;;;;;;5043308;28;21017;-76
2020/12/10 10:49:37;;;;;;;37.45;20.92;;;4.60;49.00;;;;;;5034220;28;20386;-74
2020/12/10 10:52:03;;;;;;;38.53;21.65;;;4.60;46.20;;;;;;5054465;28;20388;-75
2020/12/10 10:54:28;;;;;;;36.60;22.23;;;4.70;46.50;;;;;;5039537;28;20476;-75
2020/12/10 10:56:54;;;;;;;37.90;21.53;;;4.80;46.30;;;;;;5036161;28;20512;-74
2020/12/10 10:59:20;;;;;;;36.13;20.53;;;4.90;44.80;;;;;;5036612;28;20399;-75
2020/12/10 11:01:45;;;;;;;35.28;20.25;;;4.80;45.00;;;;;;5037355;28;20406;-74
2020/12/10 11:04:11;;;;;;;37.47;20.65;;;4.80;45.10;;;;;;5036349;28;20410;-74
2020/12/10 11:06:36;;;;;;;37.38;19.67;;;4.70;47.00;;;;;;5038474;28;20388;-76
2020/12/10 11:09:02;;;;;;;38.75;19.88;;;4.80;45.30;;;;;;5044954;28;20467;-75
2020/12/10 11:11:28;;;;;;;32.07;19.10;;;4.80;45.40;;;;;;5036649;28;20398;-76
2020/12/10 11:13:54;;;;;;;32.03;18.27;;;4.70;47.40;;;;;;5035174;28;20391;-76
2020/12/10 11:16:21;;;;;;;32.03;18.77;;;4.80;45.80;;;;;;5035298;28;20690;-73
2020/12/10 11:18:46;;;;;;;31.03;19.00;;;4.80;45.00;;;;;;5044297;28;20877;-72
2020/12/10 11:21:13;;;;;;;36.83;20.30;;;4.80;46.10;;;;;;5052797;28;20421;-72
2020/12/10 11:23:39;;;;;;;33.30;19.00;;;4.80;45.90;;;;;;5044136;28;20891;-71
2020/12/10 11:26:05;;;;;;;33.20;18.80;;;4.80;46.50;;;;;;5033033;28;20403;-71
2020/12/10 11:28:31;;;;;;;84.30;22.98;;;4.80;47.30;;;;;;5034017;28;20415;-74
2020/12/10 11:30:57;;;;;;;32.33;17.42;;;5.00;45.70;;;;;;5032987;28;20449;-74
2020/12/10 11:33:23;;;;;;;33.58;18.45;;;5.00;44.70;;;;;;5033487;28;20444;-78
2020/12/10 11:35:49;;;;;;;32.97;18.00;;;5.10;45.00;;;;;;5031249;28;20434;-78
2020/12/10 11:38:15;;;;;;;35.30;18.27;;;5.30;43.10;;;;;;5035399;28;20383;-75
2020/12/10 11:40:41;;;;;;;36.97;19.65;;;5.20;43.40;;;;;;5036653;28;20911;-74
2020/12/10 11:43:06;;;;;;;33.10;17.70;;;5.20;43.10;;;;;;5038016;28;20559;-75
2020/12/10 11:45:32;;;;;;;31.75;18.15;;;5.20;42.80;;;;;;5036304;28;20395;-74
2020/12/10 11:48:03;;;;;;;30.77;18.00;;;5.20;42.50;;;;;;5052531;28;20523;-75
2020/12/10 11:50:30;;;;;;;33.13;18.10;;;5.30;42.30;;;;;;5057638;28;20402;-75
2020/12/10 11:52:56;;;;;;;31.27;17.33;;;5.30;41.70;;;;;;5039665;28;20391;-74
2020/12/10 11:55:21;;;;;;;30.90;17.60;;;5.30;41.80;;;;;;5034124;28;20465;-75
2020/12/10 11:57:47;;;;;;;29.77;17.30;;;5.40;42.40;;;;;;5036685;28;20470;-76
2020/12/10 12:00:12;;;;;;;33.90;18.50;;;5.40;42.80;;;;;;5055338;28;20421;-74
2020/12/10 12:02:39;;;;;;;32.23;17.40;;;5.50;42.50;;;;;;5042281;28;20485;-75
2020/12/10 12:05:06;;;;;;;30.60;17.80;;;5.60;41.00;;;;;;5035061;28;20435;-74
2020/12/10 12:07:31;;;;;;;30.17;17.73;;;5.50;42.10;;;;;;5045587;28;20401;-74
2020/12/10 12:09:57;;;;;;;31.93;17.63;;;5.50;40.20;;;;;;5041424;28;20410;-74
2020/12/10 12:12:23;;;;;;;32.23;18.20;;;5.50;41.40;;;;;;5033638;28;20874;-72
2020/12/10 12:14:48;;;;;;;34.80;18.53;;;5.40;41.30;;;;;;5031065;28;20423;-74
2020/12/10 12:17:14;;;;;;;35.60;18.67;;;5.40;42.00;;;;;;5033885;28;20402;-74
2020/12/10 12:19:39;;;;;;;29.98;17.85;;;5.30;41.10;;;;;;5034043;28;20414;-75
2020/12/10 12:22:05;;;;;;;34.13;16.73;;;5.30;41.60;;;;;;5032085;28;20404;-74
2020/12/10 12:24:31;;;;;;;32.78;16.90;;;5.30;42.10;;;;;;5031695;28;20401;-74
2020/12/10 12:26:56;;;;;;;30.90;17.55;;;5.40;41.50;;;;;;5043716;28;20436;-74
2020/12/10 12:29:22;;;;;;;33.07;17.50;;;5.40;41.50;;;;;;5053485;28;20472;-74
2020/12/10 12:31:47;;;;;;;31.60;17.60;;;5.30;41.40;;;;;;5043497;28;20395;-75
2020/12/10 12:34:13;;;;;;;29.50;17.67;;;5.30;42.40;;;;;;5032397;28;20772;-74
2020/12/10 12:36:39;;;;;;;32.55;17.48;;;5.30;42.20;;;;;;5034194;28;20437;-73
2020/12/10 12:39:06;;;;;;;30.52;16.23;;;5.20;42.40;;;;;;5035475;28;20382;-75